Time;durP1;ratioP1;P1;durP2;ratioP2;P2;SDS_P1;SDS_P2;PMS_P1;PMS_P2;Temp;Humidity;BMP_temperature;BMP_pressure;BME280_temperature;BME280_humidity;BME280_pressure;Samples;Min_cycle;Max_cycle;Signal;HPM_P1;HPM_P2
2021/04/22 00:01:34;;;;;;;23.65;16.17;;;;;;;10.23;54.04;99613.63;147747;1148;104476;-77
2021/04/22 00:04:37;;;;;;;24.63;15.95;;;;;;;10.22;53.23;99614.64;147791;1147;104480;-78
2021/04/22 00:07:40;;;;;;;20.95;14.70;;;;;;;10.18;52.62;99616.80;147751;1147;104547;-81
2021/04/22 00:10:46;;;;;;;23.40;15.15;;;;;;;10.15;54.27;99629.63;147779;1146;104564;-77
2021/04/22 00:13:49;;;;;;;21.25;14.33;;;;;;;10.09;53.44;99631.12;147757;1147;104565;-75
2021/04/22 00:16:53;;;;;;;23.40;15.32;;;;;;;10.04;54.50;99614.78;147808;1146;104486;-76
2021/04/22 00:19:56;;;;;;;20.62;14.95;;;;;;;9.99;54.72;99607.30;147703;1146;104567;-76
2021/04/22 00:22:59;;;;;;;22.00;15.73;;;;;;;9.96;54.77;99620.94;147667;1147;104610;-77
2021/04/22 00:26:02;;;;;;;20.23;14.30;;;;;;;9.91;55.17;99635.75;147801;1147;104542;-76
2021/04/22 00:29:06;;;;;;;19.50;14.50;;;;;;;9.85;55.89;99626.58;147734;1147;104492;-79
2021/04/22 00:32:09;;;;;;;23.27;14.68;;;;;;;9.79;56.13;99648.55;147859;1147;104436;-77
2021/04/22 00:35:14;;;;;;;20.43;14.07;;;;;;;9.73;56.27;99652.70;147777;1147;104451;-76
2021/04/22 00:38:17;;;;;;;20.02;14.25;;;;;;;9.66;56.15;99654.37;147687;1147;104620;-77
2021/04/22 00:45:38;;;;;;;15.45;11.10;;;;;;;9.53;56.05;99651.33;147802;1148;104476;-80
2021/04/22 00:48:41;;;;;;;15.60;10.93;;;;;;;9.48;55.96;99646.46;147843;1147;104546;-78
2021/04/22 00:51:45;;;;;;;15.65;10.50;;;;;;;9.40;55.89;99646.44;147403;1147;104579;-83
2021/04/22 00:54:49;;;;;;;13.38;10.15;;;;;;;9.35;56.02;99651.40;147351;1146;104525;-85
2021/04/22 00:57:53;;;;;;;15.03;10.80;;;;;;;9.24;56.20;99645.38;147503;1148;104535;-84
2021/04/22 01:00:59;;;;;;;13.17;10.47;;;;;;;9.09;56.84;99627.51;147569;1146;104550;-84
2021/04/22 01:04:04;;;;;;;15.50;10.20;;;;;;;9.14;56.62;99641.16;147721;1147;104493;-86
2021/04/22 01:07:07;;;;;;;14.28;10.15;;;;;;;9.08;55.96;99650.61;147477;1147;104562;-85
2021/04/22 01:10:14;;;;;;;13.40;9.63;;;;;;;9.00;57.34;99653.23;147430;1147;104590;-83
2021/04/22 01:13:17;;;;;;;15.70;9.90;;;;;;;8.92;56.51;99667.32;147547;1147;104569;-84
2021/04/22 01:16:20;;;;;;;15.35;9.88;;;;;;;8.83;56.70;99668.25;147717;1147;104448;-83
2021/04/22 01:19:24;;;;;;;14.87;10.90;;;;;;;8.75;56.46;99678.84;147696;1147;104562;-84
2021/04/22 01:22:27;;;;;;;16.17;11.30;;;;;;;8.66;57.13;99677.97;147558;1147;104564;-84
2021/04/22 01:25:32;;;;;;;17.10;11.70;;;;;;;8.60;56.68;99687.39;147827;1147;104575;-83
2021/04/22 01:28:35;;;;;;;16.57;11.40;;;;;;;8.52;57.20;99689.14;147867;1147;104601;-78
2021/04/22 01:31:39;;;;;;;16.75;10.68;;;;;;;8.46;57.29;99695.91;147782;1148;104569;-79
2021/04/22 01:34:42;;;;;;;14.70;10.48;;;;;;;8.51;56.74;99712.25;147807;1146;104546;-80
2021/04/22 01:37:46;;;;;;;15.40;10.48;;;;;;;8.58;56.57;99721.29;147856;1147;104512;-80
2021/04/22 01:40:50;;;;;;;14.03;9.43;;;;;;;8.65;57.03;99717.00;147787;1147;104751;-79
2021/04/22 01:43:54;;;;;;;15.58;10.68;;;;;;;8.67;56.54;99718.69;147786;1147;104470;-78
2021/04/22 01:46:57;;;;;;;15.72;10.08;;;;;;;8.61;56.93;99718.30;147754;1147;104482;-81
2021/04/22 01:50:00;;;;;;;14.40;10.18;;;;;;;8.54;56.75;99717.23;147757;1147;104572;-78
2021/04/22 01:53:04;;;;;;;15.17;10.43;;;;;;;8.49;58.22;99718.69;147772;1147;104471;-81
2021/04/22 01:56:08;;;;;;;15.25;10.20;;;;;;;8.37;57.79;99721.56;147599;1146;104617;-80
2021/04/22 01:59:11;;;;;;;14.75;9.75;;;;;;;8.24;58.41;99716.62;147614;1147;104620;-85
2021/04/22 02:02:15;;;;;;;13.95;9.55;;;;;;;8.10;59.04;99722.44;147375;1147;104476;-82
2021/04/22 02:05:19;;;;;;;14.43;10.40;;;;;;;8.02;58.90;99719.70;147344;1146;104477;-80
2021/04/22 02:08:23;;;;;;;12.80;9.60;;;;;;;7.97;60.16;99716.68;147622;1147;104565;-81
2021/04/22 02:11:26;;;;;;;14.20;10.50;;;;;;;7.88;59.67;99712.25;147741;1148;104439;-80
2021/04/22 02:14:29;;;;;;;15.48;10.05;;;;;;;7.79;62.79;99712.14;147659;1146;104631;-79
2021/04/22 02:17:32;;;;;;;15.00;10.35;;;;;;;7.78;59.77;99693.72;147630;1147;104569;-81
2021/04/22 02:20:36;;;;;;;14.53;9.60;;;;;;;7.79;58.99;99676.78;147758;1147;104451;-79
2021/04/22 02:23:39;;;;;;;13.62;8.93;;;;;;;7.84;60.34;99690.47;147670;1147;104614;-77
2021/04/22 02:26:42;;;;;;;12.20;8.28;;;;;;;7.87;59.69;99695.46;147700;1147;104572;-78
2021/04/22 02:29:46;;;;;;;12.53;8.50;;;;;;;7.85;60.24;99692.98;147843;1147;104961;-80
2021/04/22 02:32:50;;;;;;;13.93;8.78;;;;;;;7.85;58.91;99695.63;147849;1148;104473;-78
2021/04/22 02:35:53;;;;;;;11.97;8.30;;;;;;;7.85;60.24;99695.63;147720;1147;104863;-77
2021/04/22 02:38:57;;;;;;;10.57;7.50;;;;;;;7.80;59.63;99702.38;147720;1148;104506;-74
2021/04/22 02:42:00;;;;;;;11.37;7.67;;;;;;;7.75;59.31;99704.63;147750;1147;104589;-74
2021/04/22 02:45:07;;;;;;;11.50;8.35;;;;;;;7.68;59.65;99712.37;147835;1147;104525;-73
2021/04/22 02:48:11;;;;;;;10.07;7.27;;;;;;;7.60;60.27;99733.48;147817;1147;104585;-75
2021/04/22 02:51:15;;;;;;;12.10;7.55;;;;;;;7.54;59.75;99734.08;147702;1146;104479;-74
2021/04/22 02:54:18;;;;;;;9.35;7.37;;;;;;;7.51;60.54;99737.88;147403;1147;104948;-76
2021/04/22 02:57:21;;;;;;;11.63;7.03;;;;;;;7.48;60.92;99738.16;147845;1148;104690;-77
2021/04/22 03:00:25;;;;;;;11.63;6.65;;;;;;;7.47;61.09;99723.22;147917;1148;104481;-75
2021/04/22 03:03:28;;;;;;;12.10;6.60;;;;;;;7.48;61.70;99723.05;147847;1147;105155;-75
2021/04/22 03:06:31;;;;;;;10.18;6.62;;;;;;;7.46;60.61;99729.50;147682;1147;104497;-78
2021/04/22 03:09:35;;;;;;;9.35;6.80;;;;;;;7.47;60.38;99724.05;147749;1147;104562;-80
2021/04/22 03:12:38;;;;;;;8.98;5.03;;;;;;;7.40;60.43;99728.27;147792;1147;104570;-75
2021/04/22 03:15:41;;;;;;;7.92;4.50;;;;;;;7.33;60.45;99727.16;147831;1147;104547;-74
2021/04/22 03:18:44;;;;;;;7.28;3.72;;;;;;;7.29;59.53;99757.63;147794;1147;104471;-76
2021/04/22 03:21:48;;;;;;;7.80;3.73;;;;;;;7.22;60.24;99764.52;147761;1147;104566;-75
2021/04/22 03:24:51;;;;;;;9.08;3.55;;;;;;;7.07;61.12;99762.30;147489;1146;104445;-75
2021/04/22 03:27:55;;;;;;;5.65;2.95;;;;;;;6.87;62.31;99764.16;148016;1147;104496;-75
2021/04/22 03:30:59;;;;;;;5.33;3.20;;;;;;;6.79;61.41;99771.13;148006;1147;104535;-76
2021/04/22 03:34:02;;;;;;;8.85;3.20;;;;;;;6.68;61.95;99756.22;147677;1147;104475;-77
2021/04/22 03:37:05;;;;;;;5.97;3.10;;;;;;;6.49;61.34;99767.66;147813;1147;104529;-79
2021/04/22 03:40:12;;;;;;;5.17;2.90;;;;;;;6.31;60.95;99771.95;147804;1147;105017;-81
2021/04/22 03:43:16;;;;;;;5.83;3.17;;;;;;;6.21;62.02;99772.77;147779;1148;104606;-77
2021/04/22 03:46:19;;;;;;;6.40;3.20;;;;;;;6.15;61.53;99780.44;147788;1147;104499;-75
2021/04/22 03:49:22;;;;;;;6.45;2.55;;;;;;;6.11;61.77;99777.22;147845;1147;104582;-75
2021/04/22 03:52:25;;;;;;;7.62;2.95;;;;;;;6.13;61.50;99793.81;147746;1148;104483;-74
2021/04/22 03:55:28;;;;;;;6.65;2.62;;;;;;;6.21;61.03;99807.20;147387;1147;104508;-76
2021/04/22 03:58:32;;;;;;;8.30;2.80;;;;;;;6.33;60.93;99809.74;147725;1147;104571;-76
2021/04/22 04:01:35;;;;;;;6.37;2.67;;;;;;;6.30;63.08;99816.16;147777;1147;105037;-78
2021/04/22 04:04:38;;;;;;;6.58;2.58;;;;;;;6.25;61.96;99813.08;147742;1147;104478;-75
2021/04/22 04:07:41;;;;;;;4.83;2.50;;;;;;;6.22;61.88;99824.80;147747;1147;104586;-75
2021/04/22 04:10:44;;;;;;;6.50;2.93;;;;;;;6.14;63.85;99819.34;147724;1147;104588;-73
2021/04/22 04:13:48;;;;;;;5.67;2.80;;;;;;;6.08;63.29;99810.13;147260;1147;104522;-72
2021/04/22 04:16:51;;;;;;;6.47;3.02;;;;;;;6.05;62.79;99804.25;147958;1148;104573;-72
2021/04/22 04:19:54;;;;;;;5.12;2.72;;;;;;;6.01;62.00;99808.98;147489;1147;104566;-73
2021/04/22 04:22:57;;;;;;;8.23;3.20;;;;;;;6.05;62.55;99820.14;147548;1147;104569;-74
2021/04/22 04:26:00;;;;;;;7.33;3.30;;;;;;;6.15;62.76;99821.00;147767;1148;104467;-75
2021/04/22 04:29:04;;;;;;;19.32;6.37;;;;;;;6.33;63.02;99828.30;147725;1147;104560;-71
2021/04/22 04:32:08;;;;;;;19.82;7.90;;;;;;;6.57;62.50;99823.45;147790;1145;104569;-75
2021/04/22 04:35:13;;;;;;;19.90;7.17;;;;;;;6.81;62.64;99812.46;147769;1147;104574;-73
2021/04/22 04:38:16;;;;;;;7.63;3.60;;;;;;;7.01;62.08;99833.66;147731;1146;104480;-72
2021/04/22 04:41:20;;;;;;;6.40;3.40;;;;;;;7.15;62.39;99830.56;147788;1147;104895;-71
2021/04/22 04:44:23;;;;;;;6.47;2.90;;;;;;;7.28;62.13;99839.07;147742;1147;104624;-72
2021/04/22 04:47:26;;;;;;;6.03;2.77;;;;;;;7.39;61.50;99847.84;147483;1147;104969;-72
2021/04/22 04:50:29;;;;;;;7.93;2.97;;;;;;;7.46;61.86;99854.27;147767;1147;104575;-72
2021/04/22 04:53:32;;;;;;;5.03;3.08;;;;;;;7.52;61.68;99864.30;147778;1147;104473;-72
2021/04/22 04:56:36;;;;;;;4.75;2.87;;;;;;;7.52;61.78;99874.92;147789;1147;104450;-72
2021/04/22 04:59:39;;;;;;;9.10;3.65;;;;;;;7.56;62.32;99875.48;147720;1148;104633;-72
2021/04/22 05:02:42;;;;;;;8.00;3.12;;;;;;;7.61;62.03;99879.38;147721;1148;104453;-73
2021/04/22 05:05:45;;;;;;;9.63;3.58;;;;;;;7.59;61.94;99865.42;147766;1147;104485;-73
2021/04/22 05:08:48;;;;;;;9.33;4.20;;;;;;;7.67;61.68;99868.19;147756;1147;104489;-72
2021/04/22 05:11:53;;;;;;;6.22;3.58;;;;;;;7.80;62.46;99865.22;147749;1147;104556;-72
2021/04/22 05:14:56;;;;;;;7.17;3.90;;;;;;;7.92;61.88;99875.67;147611;1147;104589;-73
2021/04/22 05:17:59;;;;;;;7.53;3.55;;;;;;;8.06;61.99;99868.07;147745;1147;104493;-73
2021/04/22 05:21:02;;;;;;;7.70;3.85;;;;;;;8.15;61.98;99858.37;147695;1147;104610;-73
2021/04/22 05:24:07;;;;;;;6.75;3.60;;;;;;;8.15;61.93;99868.17;147715;1147;104553;-72
2021/04/22 05:27:10;;;;;;;5.40;3.52;;;;;;;8.11;61.89;99869.45;147746;1147;104481;-72
2021/04/22 05:30:16;;;;;;;9.25;3.87;;;;;;;8.00;61.47;99879.26;147344;1147;104610;-74
2021/04/22 05:33:20;;;;;;;7.70;3.83;;;;;;;7.92;62.19;99881.81;147801;1148;104569;-72
2021/04/22 05:36:23;;;;;;;12.78;5.00;;;;;;;7.81;61.41;99880.19;147751;1147;104489;-73
2021/04/22 05:39:26;;;;;;;32.55;14.55;;;;;;;7.89;62.32;99881.27;147703;1148;104621;-72
2021/04/22 05:42:29;;;;;;;18.20;7.33;;;;;;;7.88;61.80;99891.06;147787;1147;104614;-72
2021/04/22 05:45:32;;;;;;;12.33;4.80;;;;;;;7.73;62.27;99895.98;147786;1147;104596;-72
2021/04/22 05:48:36;;;;;;;13.35;6.60;;;;;;;7.73;62.78;99881.88;147687;1147;104562;-73
2021/04/22 05:51:41;;;;;;;11.12;4.92;;;;;;;7.83;62.10;99888.84;147335;1147;104630;-75
2021/04/22 05:54:44;;;;;;;11.97;4.62;;;;;;;7.96;62.11;99887.68;147748;1147;104491;-72
2021/04/22 05:57:48;;;;;;;9.97;3.70;;;;;;;8.12;62.25;99893.23;147775;1148;104572;-74
2021/04/22 06:00:51;;;;;;;15.20;4.50;;;;;;;8.27;62.31;99888.24;147586;1147;104627;-72
2021/04/22 06:03:54;;;;;;;9.33;4.00;;;;;;;8.48;61.37;99881.88;147624;1147;104508;-72
2021/04/22 06:06:58;;;;;;;11.95;4.60;;;;;;;8.58;61.23;99883.52;147754;1147;104470;-72
2021/04/22 06:10:01;;;;;;;7.83;3.60;;;;;;;8.69;61.03;99886.94;147733;1147;104557;-72
2021/04/22 06:13:04;;;;;;;9.78;4.00;;;;;;;8.77;60.99;99889.67;147781;1147;104617;-72
2021/04/22 06:16:08;;;;;;;6.70;3.17;;;;;;;8.87;60.70;99893.09;147243;1147;104702;-73
2021/04/22 06:19:11;;;;;;;9.23;3.85;;;;;;;8.82;59.46;99890.90;147825;1147;104597;-73
2021/04/22 06:22:15;;;;;;;7.70;2.50;;;;;;;8.55;57.82;99894.44;147747;1147;104569;-73
2021/04/22 06:25:20;;;;;;;9.25;2.40;;;;;;;8.27;58.48;99898.88;147739;1147;104482;-73
2021/04/22 06:28:24;;;;;;;7.37;3.25;;;;;;;8.23;57.45;99910.79;147832;1146;104492;-71
2021/04/22 06:31:27;;;;;;;8.48;3.08;;;;;;;8.13;59.02;99916.14;147731;1147;104617;-72
2021/04/22 06:34:30;;;;;;;7.20;2.47;;;;;;;7.93;54.94;99933.98;147750;1147;104571;-74
2021/04/22 06:37:33;;;;;;;8.48;2.45;;;;;;;7.60;56.65;99919.34;147773;1147;104783;-72
2021/04/22 06:40:37;;;;;;;9.47;2.70;;;;;;;7.32;56.57;99932.52;147784;1147;104591;-73
2021/04/22 06:43:40;;;;;;;7.17;2.40;;;;;;;7.08;56.21;99941.73;147565;1148;104570;-72
2021/04/22 06:46:44;;;;;;;7.12;2.67;;;;;;;7.03;57.29;99938.66;147835;1147;104685;-74
2021/04/22 06:49:48;;;;;;;7.03;2.65;;;;;;;7.03;56.08;99951.91;147817;1148;104420;-72
2021/04/22 06:52:52;;;;;;;8.00;2.98;;;;;;;7.03;55.06;99946.61;147780;1147;104460;-74
2021/04/22 06:55:56;;;;;;;9.65;2.50;;;;;;;7.08;55.02;99959.45;147814;1147;104563;-72
2021/04/22 06:59:01;;;;;;;9.63;2.72;;;;;;;7.16;55.73;99958.76;147742;1147;104630;-72
2021/04/22 07:02:04;;;;;;;12.27;3.77;;;;;;;7.41;55.79;99962.67;147591;1147;104889;-72
2021/04/22 07:05:10;;;;;;;7.40;2.87;;;;;;;7.61;55.49;99959.05;147795;1147;104537;-76
2021/04/22 07:08:13;;;;;;;8.50;2.90;;;;;;;7.64;53.79;99963.22;147658;1147;104560;-73
2021/04/22 07:11:17;;;;;;;8.63;3.27;;;;;;;7.77;54.98;99963.77;147718;1148;104679;-73
2021/04/22 07:14:20;;;;;;;9.93;2.70;;;;;;;8.18;54.21;99953.77;147406;1147;104550;-74
2021/04/22 07:17:23;;;;;;;8.20;3.40;;;;;;;8.39;53.10;99953.55;147822;1147;104457;-70
2021/04/22 07:20:26;;;;;;;8.67;3.13;;;;;;;8.58;53.90;99950.00;147874;1147;104892;-73
2021/04/22 07:23:29;;;;;;;8.40;3.05;;;;;;;8.70;52.71;99971.05;147738;1148;104834;-72
2021/04/22 07:26:33;;;;;;;8.03;2.60;;;;;;;8.74;51.24;99973.28;147344;1148;104569;-72
2021/04/22 07:29:36;;;;;;;6.55;2.70;;;;;;;8.40;49.47;99975.64;147723;1147;104473;-73
2021/04/22 07:32:39;;;;;;;16.35;3.70;;;;;;;8.32;51.87;99983.52;147754;1147;104538;-72
2021/04/22 07:35:43;;;;;;;8.43;2.90;;;;;;;8.23;51.59;99975.41;147789;1147;104480;-72
2021/04/22 07:38:46;;;;;;;10.17;3.13;;;;;;;8.24;52.28;99984.24;147702;1147;104480;-72
2021/04/22 07:41:49;;;;;;;10.10;2.45;;;;;;;8.29;52.63;99995.26;147818;1147;104565;-73
2021/04/22 07:44:53;;;;;;;13.73;5.27;;;;;;;8.41;52.73;99977.30;147733;1146;104577;-72
2021/04/22 07:47:57;;;;;;;8.78;3.02;;;;;;;8.51;52.20;99988.80;147706;1147;104471;-72
2021/04/22 07:51:00;;;;;;;15.43;4.10;;;;;;;8.47;52.19;99986.55;147601;1147;104530;-71
2021/04/22 07:54:04;;;;;;;10.38;4.25;;;;;;;8.52;51.08;99998.42;147692;1147;104493;-72
2021/04/22 07:57:08;;;;;;;13.58;5.50;;;;;;;8.52;50.89;99998.42;147235;1148;104567;-72
2021/04/22 08:00:15;;;;;;;13.13;4.90;;;;;;;8.58;51.14;99994.34;147247;1147;104477;-72
2021/04/22 08:03:19;;;;;;;11.53;3.75;;;;;;;8.61;51.18;100000.21;147611;1147;104563;-72
2021/04/22 08:06:22;;;;;;;7.50;2.58;;;;;;;8.59;51.22;100001.36;147751;1147;104559;-74
2021/04/22 08:09:25;;;;;;;12.43;5.78;;;;;;;8.62;49.19;99996.59;147738;1147;104489;-71
2021/04/22 08:12:28;;;;;;;8.68;2.85;;;;;;;8.50;47.37;100005.72;147865;1147;104576;-72
2021/04/22 08:15:34;;;;;;;30.77;19.67;;;;;;;8.42;48.07;100001.12;147684;1147;104575;-72
2021/04/22 08:18:37;;;;;;;12.47;4.35;;;;;;;8.38;47.89;99993.56;147995;1147;104618;-72
2021/04/22 08:21:40;;;;;;;15.75;8.00;;;;;;;8.51;49.74;99998.59;147820;1147;104523;-73
2021/04/22 08:24:43;;;;;;;11.80;6.87;;;;;;;8.81;50.16;99990.34;147848;1147;104563;-71
2021/04/22 08:27:48;;;;;;;7.40;3.10;;;;;;;9.08;50.28;99993.94;147723;1148;104553;-72
2021/04/22 08:30:54;;;;;;;8.60;3.15;;;;;;;9.22;45.66;100005.92;147812;1147;104579;-72
2021/04/22 08:34:02;;;;;;;10.93;4.15;;;;;;;8.91;46.20;100010.70;147791;1148;104489;-74
2021/04/22 08:37:05;;;;;;;10.00;4.15;;;;;;;8.63;48.38;100006.22;147678;1147;104573;-74
2021/04/22 08:40:14;;;;;;;167.90;110.80;;;;;;;8.61;48.12;100015.34;147758;1147;104575;-73
2021/04/22 08:43:17;;;;;;;285.45;182.85;;;;;;;8.73;48.71;100013.33;147747;1148;104494;-73
2021/04/22 08:46:23;;;;;;;28.83;14.65;;;;;;;8.77;47.10;100012.05;147835;1147;104470;-75
2021/04/22 08:49:27;;;;;;;12.63;6.67;;;;;;;8.89;46.78;100023.33;147756;1147;104551;-74
2021/04/22 08:52:30;;;;;;;7.57;3.47;;;;;;;8.93;46.94;100011.39;147740;1147;104502;-72
2021/04/22 08:55:36;;;;;;;13.48;9.78;;;;;;;9.13;47.68;100015.62;147671;1145;104919;-73
2021/04/22 08:58:40;;;;;;;10.68;5.92;;;;;;;9.37;47.79;100012.40;147746;1147;104519;-72
2021/04/22 09:01:43;;;;;;;8.88;4.00;;;;;;;9.48;47.84;100019.31;147770;1147;104559;-72
2021/04/22 09:04:47;;;;;;;8.25;2.95;;;;;;;9.38;45.32;100023.88;147762;1147;104566;-73
2021/04/22 09:07:50;;;;;;;7.30;2.33;;;;;;;9.17;46.14;100032.14;147857;1147;104613;-73
2021/04/22 09:10:53;;;;;;;6.92;2.90;;;;;;;9.19;46.69;100024.84;147507;1148;104812;-74
2021/04/22 09:13:57;;;;;;;5.92;2.58;;;;;;;9.56;46.63;100019.38;147750;1147;104483;-73
2021/04/22 09:17:00;;;;;;;13.15;3.70;;;;;;;9.87;47.07;100015.48;147758;1147;104617;-73
2021/04/22 09:20:08;;;;;;;8.00;3.75;;;;;;;10.16;46.49;100024.05;147531;1148;104646;-73
2021/04/22 09:23:17;;;;;;;8.78;4.62;;;;;;;10.32;44.86;100017.19;147681;1147;104483;-73
2021/04/22 09:26:20;;;;;;;8.48;2.90;;;;;;;10.45;45.79;100020.27;147758;1148;104560;-72
2021/04/22 09:29:36;;;;;;;255.07;127.35;;;;;;;10.67;45.76;100026.05;147765;1147;104472;-73
2021/04/22 09:32:39;;;;;;;57.25;28.85;;;;;;;10.81;45.25;100006.74;147816;1147;104579;-72
2021/04/22 09:35:42;;;;;;;173.77;106.53;;;;;;;10.79;45.34;100014.08;147731;1147;104620;-72
2021/04/22 09:38:55;;;;;;;78.57;45.07;;;;;;;10.62;44.87;100021.16;147750;1145;104609;-72
2021/04/22 09:42:01;;;;;;;168.35;113.28;;;;;;;10.63;43.93;100030.03;147697;1147;104423;-72
2021/04/22 09:45:10;;;;;;;119.82;74.80;;;;;;;10.58;46.02;100017.98;147316;1147;104482;-72
2021/04/22 09:48:20;;;;;;;32.50;18.40;;;;;;;10.77;46.03;100016.08;147886;1147;104569;-74
2021/04/22 09:51:30;;;;;;;8.45;4.50;;;;;;;10.40;41.34;100022.56;147796;1147;104593;-73
2021/04/22 09:54:41;;;;;;;10.05;3.10;;;;;;;10.29;43.06;100017.45;147736;1147;104611;-72
2021/04/22 09:57:45;;;;;;;52.15;36.15;;;;;;;10.39;45.93;100019.06;147731;1147;104470;-71
2021/04/22 10:00:48;;;;;;;39.55;23.45;;;;;;;10.55;45.35;100010.31;147780;1147;104473;-72
2021/04/22 10:03:52;;;;;;;15.18;7.00;;;;;;;10.69;44.37;100013.37;147416;1148;104503;-73
2021/04/22 10:06:55;;;;;;;98.07;59.77;;;;;;;10.68;43.18;100011.69;147547;1147;104629;-73
2021/04/22 10:10:00;;;;;;;16.62;8.15;;;;;;;10.64;43.85;100018.34;147752;1147;104566;-73
2021/04/22 10:13:05;;;;;;;25.25;18.05;;;;;;;10.71;44.50;100009.55;147647;1148;104475;-72
2021/04/22 10:16:09;;;;;;;29.57;17.23;;;;;;;10.99;45.59;100004.83;147578;1147;104553;-72
2021/04/22 10:19:20;;;;;;;36.73;22.48;;;;;;;11.25;44.40;99998.54;147722;1148;105017;-73
2021/04/22 10:22:29;;;;;;;36.33;19.85;;;;;;;11.38;44.30;99987.39;147749;1147;104588;-72
2021/04/22 10:25:33;;;;;;;9.87;5.47;;;;;;;11.42;43.41;100002.08;147670;1147;104565;-72
2021/04/22 10:28:36;;;;;;;9.50;3.22;;;;;;;11.36;43.46;100003.57;147809;1147;104572;-71
2021/04/22 10:31:40;;;;;;;8.53;2.67;;;;;;;11.05;41.14;99995.33;147710;1147;104487;-74
2021/04/22 10:34:45;;;;;;;5.00;2.70;;;;;;;10.90;42.14;100002.29;147790;1148;104575;-73
2021/04/22 10:37:51;;;;;;;11.55;5.08;;;;;;;11.05;43.09;99986.46;147812;1148;104559;-72
2021/04/22 10:40:54;;;;;;;16.13;9.80;;;;;;;11.31;44.28;99989.86;147704;1147;104493;-73
2021/04/22 10:43:58;;;;;;;9.83;5.47;;;;;;;11.46;42.96;99986.56;147389;1146;104476;-72
2021/04/22 10:47:01;;;;;;;6.92;3.33;;;;;;;11.34;42.88;99994.06;147511;1147;104533;-72
2021/04/22 10:50:08;;;;;;;10.00;3.40;;;;;;;11.31;42.62;100005.06;147742;1147;104451;-74
2021/04/22 10:53:19;;;;;;;8.60;4.03;;;;;;;11.34;42.61;99997.56;147761;1147;104604;-73
2021/04/22 10:56:30;;;;;;;7.55;3.00;;;;;;;11.28;42.00;100002.70;147276;1148;104561;-73
2021/04/22 10:59:34;;;;;;;8.13;4.03;;;;;;;11.28;41.32;100006.23;147434;1147;104556;-73
2021/04/22 11:02:44;;;;;;;5.83;2.60;;;;;;;11.53;42.38;99992.92;147632;1147;104476;-72
2021/04/22 11:05:55;;;;;;;6.05;2.35;;;;;;;11.84;42.31;99998.44;147727;1147;104466;-73
2021/04/22 11:08:58;;;;;;;7.50;2.47;;;;;;;12.04;40.89;100012.31;147803;1148;104492;-73
2021/04/22 11:12:04;;;;;;;7.90;2.10;;;;;;;12.06;41.00;99996.93;147764;1147;104572;-74
2021/04/22 11:15:20;;;;;;;7.17;2.87;;;;;;;11.93;40.34;100018.86;147760;1148;104450;-72
2021/04/22 11:18:35;;;;;;;5.58;2.58;;;;;;;11.89;41.76;100009.47;147821;1148;104561;-74
2021/04/22 11:21:51;;;;;;;7.53;2.20;;;;;;;12.14;41.68;100004.97;147775;1147;104484;-73
2021/04/22 11:24:56;;;;;;;7.22;2.60;;;;;;;12.48;41.77;99995.84;147780;1147;104513;-72
2021/04/22 11:28:06;;;;;;;4.53;2.10;;;;;;;12.54;40.07;100010.38;147547;1147;104492;-73
2021/04/22 11:31:11;;;;;;;7.00;2.50;;;;;;;12.58;39.99;100017.88;147454;1147;104473;-73
2021/04/22 11:34:14;;;;;;;5.28;2.40;;;;;;;12.51;41.13;100016.06;147699;1147;104518;-74
2021/04/22 11:37:22;;;;;;;6.95;2.70;;;;;;;12.58;40.59;100015.20;147297;1147;104451;-73
2021/04/22 11:40:29;;;;;;;8.90;2.60;;;;;;;12.72;40.41;100010.15;147265;1147;104742;-72
2021/04/22 11:43:33;;;;;;;4.75;2.12;;;;;;;12.86;39.45;100011.29;147486;1147;104569;-73
2021/04/22 11:46:42;;;;;;;7.13;2.40;;;;;;;12.91;40.51;100008.91;147395;1147;104563;-72
2021/04/22 11:49:46;;;;;;;7.03;2.35;;;;;;;12.89;40.70;100006.39;147746;1147;104482;-74
2021/04/22 11:52:54;;;;;;;4.05;2.25;;;;;;;12.65;39.45;100015.38;147770;1147;104562;-73
2021/04/22 11:55:57;;;;;;;4.95;2.35;;;;;;;12.52;39.85;100017.75;147705;1147;104636;-72
2021/04/22 11:59:00;;;;;;;7.27;2.40;;;;;;;12.47;39.78;100020.95;147669;1147;104441;-73
2021/04/22 12:02:06;;;;;;;6.28;3.00;;;;;;;12.51;39.89;100011.58;147771;1148;104487;-74
2021/04/22 12:05:17;;;;;;;5.72;2.02;;;;;;;12.34;39.94;100004.59;147780;1148;104476;-74
2021/04/22 12:08:28;;;;;;;6.55;3.10;;;;;;;12.43;39.84;100002.72;147986;1147;104502;-73
2021/04/22 12:11:38;;;;;;;8.87;4.13;;;;;;;12.35;39.29;99999.05;147801;1148;104560;-75
2021/04/22 12:14:44;;;;;;;6.50;2.85;;;;;;;12.38;39.50;100004.06;147772;1147;104569;-73
2021/04/22 12:17:47;;;;;;;6.05;2.25;;;;;;;12.46;39.92;99995.19;147773;1147;104489;-72
2021/04/22 12:20:52;;;;;;;8.00;2.33;;;;;;;12.81;39.59;99989.55;147357;1147;104453;-73
2021/04/22 12:23:59;;;;;;;5.87;3.08;;;;;;;13.09;39.05;99989.92;147927;1147;104470;-73
2021/04/22 12:27:02;;;;;;;5.17;3.27;;;;;;;13.26;38.21;99994.17;147767;1147;104678;-72
2021/04/22 12:30:20;;;;;;;8.85;2.92;;;;;;;13.37;38.08;99984.08;147791;1147;104560;-73
2021/04/22 12:33:24;;;;;;;7.15;3.12;;;;;;;13.37;36.82;99992.11;147756;1147;104588;-75
2021/04/22 12:36:27;;;;;;;6.08;2.45;;;;;;;13.07;36.35;99986.58;147755;1147;104479;-73
2021/04/22 12:39:33;;;;;;;8.78;3.55;;;;;;;12.75;38.31;99985.72;147780;1147;104470;-72
2021/04/22 12:42:36;;;;;;;8.25;2.80;;;;;;;12.48;38.56;99985.14;147772;1148;104528;-73
2021/04/22 12:45:40;;;;;;;6.67;2.85;;;;;;;12.41;38.71;99992.18;147606;1145;104929;-73
2021/04/22 12:48:52;;;;;;;6.47;2.08;;;;;;;12.32;38.61;99993.23;147399;1147;104560;-72
2021/04/22 12:51:55;;;;;;;6.07;2.17;;;;;;;11.97;38.37;99979.22;147746;1147;104458;-73
2021/04/22 12:55:00;;;;;;;6.53;2.90;;;;;;;11.92;36.80;99978.91;147753;1147;104585;-72
2021/04/22 12:58:05;;;;;;;5.67;2.87;;;;;;;11.97;37.39;99973.88;147307;1147;104620;-72
2021/04/22 13:01:12;;;;;;;5.70;2.00;;;;;;;12.05;37.99;99971.21;147466;1147;104485;-73
2021/04/22 13:04:16;;;;;;;4.43;2.00;;;;;;;12.04;37.54;99977.55;147719;1146;104809;-74
2021/04/22 13:07:28;;;;;;;4.85;2.08;;;;;;;12.00;38.58;99978.89;147723;1147;104466;-74
2021/04/22 13:10:31;;;;;;;6.03;2.15;;;;;;;11.96;34.97;99972.22;147830;1147;104465;-73
2021/04/22 13:13:36;;;;;;;4.37;2.12;;;;;;;12.00;37.33;99970.87;147700;1147;104672;-73
2021/04/22 13:16:49;;;;;;;5.70;2.42;;;;;;;12.34;38.29;99967.97;147574;1145;104477;-73
2021/04/22 13:19:52;;;;;;;4.70;2.67;;;;;;;12.61;38.22;99962.37;147452;1146;104578;-72
2021/04/22 13:22:57;;;;;;;23.57;15.60;;;;;;;12.71;36.63;99973.69;147779;1147;104595;-75
2021/04/22 13:26:01;;;;;;;13.18;8.45;;;;;;;12.73;36.73;99969.83;147794;1147;104569;-73
2021/04/22 13:29:10;;;;;;;17.85;11.80;;;;;;;12.89;37.42;99968.91;147790;1147;104703;-72
2021/04/22 13:32:13;;;;;;;38.50;22.20;;;;;;;13.00;37.12;99967.69;147942;1148;104561;-72
2021/04/22 13:35:16;;;;;;;59.67;28.50;;;;;;;13.13;37.81;99967.95;147799;1147;104457;-70
2021/04/22 13:38:22;;;;;;;24.50;12.30;;;;;;;13.18;36.58;99959.36;147700;1147;104515;-71
2021/04/22 13:41:25;;;;;;;121.28;55.90;;;;;;;13.09;36.72;99971.16;147667;1147;104576;-73
2021/04/22 13:44:30;;;;;;;23.22;10.08;;;;;;;12.91;36.35;99969.59;147876;1148;104569;-71
2021/04/22 13:47:33;;;;;;;30.32;16.27;;;;;;;12.64;36.02;99959.33;147595;1145;104576;-74
2021/04/22 13:50:38;;;;;;;7.63;3.60;;;;;;;12.42;36.54;99959.08;147356;1147;104474;-69
2021/04/22 13:53:41;;;;;;;31.65;21.23;;;;;;;12.62;37.37;99958.67;147569;1147;104567;-75
2021/04/22 13:56:45;;;;;;;42.57;28.60;;;;;;;12.96;36.58;99971.73;147804;1147;104570;-72
2021/04/22 13:59:50;;;;;;;65.92;49.48;;;;;;;13.04;36.70;99962.81;147576;1147;104516;-71
2021/04/22 14:02:54;;;;;;;15.40;9.97;;;;;;;13.15;36.94;99967.77;147798;1147;104450;-74
2021/04/22 14:05:57;;;;;;;9.90;4.73;;;;;;;13.26;37.32;99977.23;147755;1147;104451;-78
2021/04/22 14:09:00;;;;;;;6.95;3.60;;;;;;;13.34;36.93;99978.06;147788;1147;104588;-74